<?xml version="1.0" encoding="UTF-8" standalone="no" ?>
<gpx xmlns="http://www.topografix.com/GPX/1/1" xmlns:xsi="http://www.w3.org/2001/XMLSchema-instance" xsi:schemaLocation="http://www.topografix.com/GPX/1/1 http://www.topografix.com/GPX/1/1/gpx.xsd" version="1.1" creator="VisuGPX - https://www.visugpx.com">
  <metadata>
    <name>rando grimbosq</name>
    <desc><![CDATA[Tour de la forêt de Grimbosq motte féodale parc animalier]]></desc>
  </metadata>
  <trk>
    <name><![CDATA[20181228202520-RcJYv]]></name>
    <trkseg>
      <trkpt lat="49.06508" lon="-0.44101">
        <ele>23</ele>
        <time>2010-01-01T00:00:00Z</time>
      </trkpt>
      <trkpt lat="49.06508" lon="-0.44102">
        <ele>23</ele>
        <time>2010-01-01T00:00:00Z</time>
      </trkpt>
      <trkpt lat="49.06493" lon="-0.44089">
        <ele>21</ele>
        <time>2010-01-01T00:00:07Z</time>
      </trkpt>
      <trkpt lat="49.06484" lon="-0.44087">
        <ele>21</ele>
        <time>2010-01-01T00:00:10Z</time>
      </trkpt>
      <trkpt lat="49.06476" lon="-0.44088">
        <ele>22</ele>
        <time>2010-01-01T00:00:14Z</time>
      </trkpt>
      <trkpt lat="49.06475" lon="-0.44088">
        <ele>22</ele>
        <time>2010-01-01T00:00:14Z</time>
      </trkpt>
      <trkpt lat="49.06467" lon="-0.44089">
        <ele>22</ele>
        <time>2010-01-01T00:00:17Z</time>
      </trkpt>
      <trkpt lat="49.06461" lon="-0.44084">
        <ele>22</ele>
        <time>2010-01-01T00:00:20Z</time>
      </trkpt>
      <trkpt lat="49.06461" lon="-0.44076">
        <ele>21</ele>
        <time>2010-01-01T00:00:22Z</time>
      </trkpt>
      <trkpt lat="49.06461" lon="-0.44077">
        <ele>21</ele>
        <time>2010-01-01T00:00:22Z</time>
      </trkpt>
      <trkpt lat="49.06461" lon="-0.44084">
        <ele>22</ele>
        <time>2010-01-01T00:00:24Z</time>
      </trkpt>
      <trkpt lat="49.0645" lon="-0.44097">
        <ele>22</ele>
        <time>2010-01-01T00:00:30Z</time>
      </trkpt>
      <trkpt lat="49.0643" lon="-0.44128">
        <ele>21</ele>
        <time>2010-01-01T00:00:41Z</time>
      </trkpt>
      <trkpt lat="49.06422" lon="-0.44157">
        <ele>22</ele>
        <time>2010-01-01T00:00:49Z</time>
      </trkpt>
      <trkpt lat="49.06406" lon="-0.442">
        <ele>24</ele>
        <time>2010-01-01T00:01:02Z</time>
      </trkpt>
      <trkpt lat="49.064" lon="-0.44196">
        <ele>23</ele>
        <time>2010-01-01T00:01:05Z</time>
      </trkpt>
      <trkpt lat="49.064" lon="-0.44195">
        <ele>23</ele>
        <time>2010-01-01T00:01:05Z</time>
      </trkpt>
      <trkpt lat="49.06364" lon="-0.4417">
        <ele>22</ele>
        <time>2010-01-01T00:01:21Z</time>
      </trkpt>
      <trkpt lat="49.06339" lon="-0.44165">
        <ele>19</ele>
        <time>2010-01-01T00:01:31Z</time>
      </trkpt>
      <trkpt lat="49.06334" lon="-0.44164">
        <ele>19</ele>
        <time>2010-01-01T00:01:33Z</time>
      </trkpt>
      <trkpt lat="49.06323" lon="-0.44168">
        <ele>17</ele>
        <time>2010-01-01T00:01:38Z</time>
      </trkpt>
      <trkpt lat="49.06318" lon="-0.44173">
        <ele>16</ele>
        <time>2010-01-01T00:01:40Z</time>
      </trkpt>
      <trkpt lat="49.063" lon="-0.44207">
        <ele>15</ele>
        <time>2010-01-01T00:01:52Z</time>
      </trkpt>
      <trkpt lat="49.06296" lon="-0.44221">
        <ele>16</ele>
        <time>2010-01-01T00:01:56Z</time>
      </trkpt>
      <trkpt lat="49.06296" lon="-0.44222">
        <ele>16</ele>
        <time>2010-01-01T00:01:56Z</time>
      </trkpt>
      <trkpt lat="49.0629" lon="-0.44239">
        <ele>17</ele>
        <time>2010-01-01T00:02:01Z</time>
      </trkpt>
      <trkpt lat="49.06287" lon="-0.44265">
        <ele>17</ele>
        <time>2010-01-01T00:02:08Z</time>
      </trkpt>
      <trkpt lat="49.06295" lon="-0.44306">
        <ele>16</ele>
        <time>2010-01-01T00:02:19Z</time>
      </trkpt>
      <trkpt lat="49.06309" lon="-0.44351">
        <ele>16</ele>
        <time>2010-01-01T00:02:32Z</time>
      </trkpt>
      <trkpt lat="49.06328" lon="-0.44401">
        <ele>16</ele>
        <time>2010-01-01T00:02:47Z</time>
      </trkpt>
      <trkpt lat="49.06341" lon="-0.44424">
        <ele>18</ele>
        <time>2010-01-01T00:02:55Z</time>
      </trkpt>
      <trkpt lat="49.0643" lon="-0.4457">
        <ele>18</ele>
        <time>2010-01-01T00:03:48Z</time>
      </trkpt>
      <trkpt lat="49.06441" lon="-0.44587">
        <ele>19</ele>
        <time>2010-01-01T00:03:54Z</time>
      </trkpt>
      <trkpt lat="49.06448" lon="-0.44591">
        <ele>19</ele>
        <time>2010-01-01T00:03:57Z</time>
      </trkpt>
      <trkpt lat="49.06443" lon="-0.44562">
        <ele>19</ele>
        <time>2010-01-01T00:04:05Z</time>
      </trkpt>
      <trkpt lat="49.06446" lon="-0.44553">
        <ele>20</ele>
        <time>2010-01-01T00:04:07Z</time>
      </trkpt>
      <trkpt lat="49.06445" lon="-0.44543">
        <ele>21</ele>
        <time>2010-01-01T00:04:10Z</time>
      </trkpt>
      <trkpt lat="49.06449" lon="-0.44536">
        <ele>22</ele>
        <time>2010-01-01T00:04:12Z</time>
      </trkpt>
      <trkpt lat="49.06453" lon="-0.44536">
        <ele>23</ele>
        <time>2010-01-01T00:04:14Z</time>
      </trkpt>
      <trkpt lat="49.06452" lon="-0.4452">
        <ele>25</ele>
        <time>2010-01-01T00:04:18Z</time>
      </trkpt>
      <trkpt lat="49.06457" lon="-0.4457">
        <ele>20</ele>
        <time>2010-01-01T00:04:31Z</time>
      </trkpt>
      <trkpt lat="49.06476" lon="-0.44678">
        <ele>25</ele>
        <time>2010-01-01T00:05:01Z</time>
      </trkpt>
      <trkpt lat="49.06477" lon="-0.44681">
        <ele>25</ele>
        <time>2010-01-01T00:05:02Z</time>
      </trkpt>
      <trkpt lat="49.06458" lon="-0.44686">
        <ele>27</ele>
        <time>2010-01-01T00:05:09Z</time>
      </trkpt>
      <trkpt lat="49.06443" lon="-0.44696">
        <ele>30</ele>
        <time>2010-01-01T00:05:16Z</time>
      </trkpt>
      <trkpt lat="49.06443" lon="-0.44695">
        <ele>30</ele>
        <time>2010-01-01T00:05:16Z</time>
      </trkpt>
      <trkpt lat="49.06465" lon="-0.44713">
        <ele>30</ele>
        <time>2010-01-01T00:05:26Z</time>
      </trkpt>
      <trkpt lat="49.06477" lon="-0.44735">
        <ele>31</ele>
        <time>2010-01-01T00:05:34Z</time>
      </trkpt>
      <trkpt lat="49.06479" lon="-0.44739">
        <ele>32</ele>
        <time>2010-01-01T00:05:35Z</time>
      </trkpt>
      <trkpt lat="49.06478" lon="-0.44753">
        <ele>34</ele>
        <time>2010-01-01T00:05:39Z</time>
      </trkpt>
      <trkpt lat="49.06475" lon="-0.44765">
        <ele>37</ele>
        <time>2010-01-01T00:05:42Z</time>
      </trkpt>
      <trkpt lat="49.06469" lon="-0.44762">
        <ele>38</ele>
        <time>2010-01-01T00:05:45Z</time>
      </trkpt>
      <trkpt lat="49.06469" lon="-0.44761">
        <ele>38</ele>
        <time>2010-01-01T00:05:45Z</time>
      </trkpt>
      <trkpt lat="49.06465" lon="-0.44756">
        <ele>38</ele>
        <time>2010-01-01T00:05:47Z</time>
      </trkpt>
      <trkpt lat="49.06458" lon="-0.44754">
        <ele>38</ele>
        <time>2010-01-01T00:05:50Z</time>
      </trkpt>
      <trkpt lat="49.0645" lon="-0.44757">
        <ele>40</ele>
        <time>2010-01-01T00:05:53Z</time>
      </trkpt>
      <trkpt lat="49.06436" lon="-0.44766">
        <ele>42</ele>
        <time>2010-01-01T00:05:59Z</time>
      </trkpt>
      <trkpt lat="49.06435" lon="-0.44769">
        <ele>43</ele>
        <time>2010-01-01T00:06:00Z</time>
      </trkpt>
      <trkpt lat="49.06434" lon="-0.44765">
        <ele>42</ele>
        <time>2010-01-01T00:06:01Z</time>
      </trkpt>
      <trkpt lat="49.06436" lon="-0.44772">
        <ele>43</ele>
        <time>2010-01-01T00:06:03Z</time>
      </trkpt>
      <trkpt lat="49.06436" lon="-0.44785">
        <ele>45</ele>
        <time>2010-01-01T00:06:07Z</time>
      </trkpt>
      <trkpt lat="49.06424" lon="-0.44818">
        <ele>49</ele>
        <time>2010-01-01T00:06:16Z</time>
      </trkpt>
      <trkpt lat="49.06406" lon="-0.44853">
        <ele>52</ele>
        <time>2010-01-01T00:06:28Z</time>
      </trkpt>
      <trkpt lat="49.06395" lon="-0.44855">
        <ele>53</ele>
        <time>2010-01-01T00:06:33Z</time>
      </trkpt>
      <trkpt lat="49.06389" lon="-0.44852">
        <ele>54</ele>
        <time>2010-01-01T00:06:35Z</time>
      </trkpt>
      <trkpt lat="49.06346" lon="-0.44784">
        <ele>56</ele>
        <time>2010-01-01T00:07:00Z</time>
      </trkpt>
      <trkpt lat="49.06331" lon="-0.44788">
        <ele>57</ele>
        <time>2010-01-01T00:07:06Z</time>
      </trkpt>
      <trkpt lat="49.06328" lon="-0.44791">
        <ele>58</ele>
        <time>2010-01-01T00:07:07Z</time>
      </trkpt>
      <trkpt lat="49.06327" lon="-0.44783">
        <ele>57</ele>
        <time>2010-01-01T00:07:10Z</time>
      </trkpt>
    </trkseg>
  </trk>
</gpx>